Time;durP1;ratioP1;P1;durP2;ratioP2;P2;SDS_P1;SDS_P2;PMS_P1;PMS_P2;Temp;Humidity;BMP_temperature;BMP_pressure;BME280_temperature;BME280_humidity;BME280_pressure;Samples;Min_cycle;Max_cycle;Signal;HPM_P1;HPM_P2
2022/01/30 00:01:07;;;;;;;15.70;7.20;;;;;-3.02;97548.20;;;;111178;1246;42522;-65
2022/01/30 00:03:36;;;;;;;16.90;7.30;;;;;-3.00;97543.40;;;;111254;1247;41596;-65
2022/01/30 00:06:05;;;;;;;18.70;8.00;;;;;-3.00;97537.60;;;;110988;1248;41845;-66
2022/01/30 00:08:35;;;;;;;24.00;11.80;;;;;-2.90;97534.40;;;;111244;1245;41175;-67
2022/01/30 00:11:12;;;;;;;35.40;15.80;;;;;-2.90;97528.40;;;;111211;1248;41268;-66
2022/01/30 00:13:42;;;;;;;38.00;19.30;;;;;-2.90;97532.40;;;;111060;1248;41209;-67
2022/01/30 00:16:14;;;;;;;42.80;18.80;;;;;-2.90;97529.60;;;;111120;1248;41756;-66
2022/01/30 00:18:59;;;;;;;19.90;8.70;;;;;-2.82;97532.40;;;;111134;1247;41156;-66
2022/01/30 00:21:34;;;;;;;17.40;6.30;;;;;-2.80;97521.60;;;;111060;1249;42464;-67
2022/01/30 00:24:13;;;;;;;13.80;5.90;;;;;-2.80;97523.00;;;;111243;1248;41150;-66
2022/01/30 00:26:42;;;;;;;14.60;6.20;;;;;-2.70;97532.60;;;;111148;1247;41478;-66
2022/01/30 00:29:13;;;;;;;20.10;7.80;;;;;-2.70;97542.40;;;;111163;1248;41149;-64
2022/01/30 00:31:43;;;;;;;16.10;7.50;;;;;-2.70;97542.60;;;;111240;1248;41588;-62
2022/01/30 00:34:33;;;;;;;18.20;8.90;;;;;-2.62;97538.40;;;;111025;1248;41176;-65
2022/01/30 00:37:03;;;;;;;19.00;8.60;;;;;-2.60;97531.60;;;;111230;1247;41309;-62
2022/01/30 00:39:32;;;;;;;28.30;13.10;;;;;-2.60;97523.40;;;;111108;1248;41677;-65
2022/01/30 00:42:01;;;;;;;39.80;17.20;;;;;-2.60;97513.40;;;;111153;1247;41936;-66
2022/01/30 00:44:31;;;;;;;43.10;19.50;;;;;-2.60;97512.80;;;;111118;1248;41958;-66
2022/01/30 00:47:03;;;;;;;36.90;16.60;;;;;-2.60;97498.20;;;;111144;1247;42795;-65
2022/01/30 00:49:33;;;;;;;45.80;20.70;;;;;-2.60;97486.20;;;;111355;1247;41160;-66
2022/01/30 00:52:03;;;;;;;46.00;21.90;;;;;-2.60;97481.60;;;;111111;1248;41702;-65
2022/01/30 00:54:32;;;;;;;45.70;21.70;;;;;-2.60;97472.20;;;;111235;1247;41204;-66
2022/01/30 00:57:02;;;;;;;46.70;21.30;;;;;-2.60;97466.20;;;;111186;1247;41153;-63
2022/01/30 00:59:31;;;;;;;35.30;17.10;;;;;-2.62;97450.80;;;;111008;1250;41118;-66
2022/01/30 01:02:01;;;;;;;33.70;13.60;;;;;-2.66;97445.00;;;;111049;1249;42068;-65
2022/01/30 01:04:31;;;;;;;24.30;11.80;;;;;-2.60;97445.00;;;;111096;1249;41603;-66
2022/01/30 01:07:00;;;;;;;26.30;11.20;;;;;-2.62;97438.40;;;;111085;1248;41147;-61
2022/01/30 01:09:36;;;;;;;25.20;11.80;;;;;-2.60;97441.00;;;;110968;1248;41622;-61
2022/01/30 01:23:35;;;;;;;18.70;9.50;;;;;-2.50;97411.00;;;;110894;1250;41172;-65
2022/01/30 01:26:04;;;;;;;32.90;15.00;;;;;-2.50;97394.80;;;;111091;1248;41270;-62
2022/01/30 01:28:33;;;;;;;38.80;18.10;;;;;-2.44;97395.00;;;;111062;1248;41251;-65
2022/01/30 01:31:04;;;;;;;44.70;20.60;;;;;-2.40;97391.80;;;;111043;1249;41181;-63
2022/01/30 01:33:51;;;;;;;43.90;21.10;;;;;-2.40;97373.80;;;;111216;1247;41409;-62
2022/01/30 01:36:23;;;;;;;48.10;21.60;;;;;-2.40;97361.80;;;;111458;1246;41129;-63
2022/01/30 01:38:53;;;;;;;39.50;18.50;;;;;-2.38;97350.40;;;;111101;1248;41343;-64
2022/01/30 01:41:25;;;;;;;35.20;17.30;;;;;-2.40;97340.00;;;;111116;1247;41695;-62
2022/01/30 01:43:55;;;;;;;33.80;15.80;;;;;-2.40;97326.00;;;;111479;1247;41665;-65
2022/01/30 01:46:30;;;;;;;39.60;17.80;;;;;-2.40;97314.60;;;;111178;1247;41224;-64
2022/01/30 01:49:00;;;;;;;40.30;18.70;;;;;-2.40;97301.40;;;;111107;1247;41165;-66
2022/01/30 01:51:31;;;;;;;32.70;15.40;;;;;-2.40;97284.80;;;;111396;1247;41173;-67
2022/01/30 01:54:01;;;;;;;32.80;15.20;;;;;-2.40;97272.40;;;;110989;1250;41483;-66
2022/01/30 01:56:31;;;;;;;33.50;14.80;;;;;-2.40;97277.20;;;;111077;1248;42430;-62
2022/01/30 01:59:06;;;;;;;29.50;12.30;;;;;-2.40;97269.40;;;;111165;1247;41144;-62
2022/01/30 02:02:01;;;;;;;24.40;11.10;;;;;-2.40;97264.40;;;;111237;1247;42097;-64
2022/01/30 02:04:31;;;;;;;21.60;9.80;;;;;-2.38;97258.20;;;;111147;1248;41603;-63
2022/01/30 02:09:50;;;;;;;21.00;10.70;;;;;-2.30;97244.40;;;;111112;1248;41637;-62
2022/01/30 02:12:28;;;;;;;22.50;10.50;;;;;-2.30;97235.40;;;;111292;1245;41197;-65
2022/01/30 02:15:18;;;;;;;20.70;8.60;;;;;-2.30;97229.80;;;;111040;1249;41148;-64
2022/01/30 02:26:35;;;;;;;16.40;6.90;;;;;-2.14;97236.80;;;;111263;1247;41139;-64
2022/01/30 02:29:05;;;;;;;15.50;6.30;;;;;-2.10;97223.00;;;;111076;1247;41123;-63
2022/01/30 02:31:38;;;;;;;12.90;6.50;;;;;-2.10;97212.20;;;;111134;1248;41154;-65
2022/01/30 02:34:08;;;;;;;22.60;8.40;;;;;-2.02;97201.20;;;;111127;1248;41144;-67
2022/01/30 02:36:47;;;;;;;18.10;7.70;;;;;-2.00;97176.20;;;;111126;1247;42290;-67
2022/01/30 02:39:17;;;;;;;23.70;10.30;;;;;-1.98;97160.40;;;;111077;1247;42221;-66
2022/01/30 02:41:47;;;;;;;30.90;12.20;;;;;-1.90;97158.20;;;;111232;1247;41173;-68
2022/01/30 02:44:23;;;;;;;28.20;12.10;;;;;-1.90;97148.80;;;;111223;1247;41147;-69
2022/01/30 02:46:57;;;;;;;17.80;8.00;;;;;-1.90;97152.80;;;;111105;1247;41264;-66
2022/01/30 02:50:09;;;;;;;16.20;7.20;;;;;-1.80;97146.40;;;;111121;1248;41845;-65
2022/01/30 02:52:22;;;;;;;15.50;7.10;;;;;-1.80;97129.60;;;;111220;1246;42133;-63
2022/01/30 02:54:52;;;;;;;18.60;8.40;;;;;-1.78;97111.60;;;;111192;1247;41601;-61
2022/01/30 02:57:22;;;;;;;22.30;10.10;;;;;-1.72;97100.00;;;;111076;1247;41262;-62
2022/01/30 02:59:51;;;;;;;22.00;9.50;;;;;-1.70;97095.40;;;;111144;1247;41137;-65
2022/01/30 03:02:22;;;;;;;17.00;8.20;;;;;-1.70;97101.80;;;;111023;1248;41129;-63
2022/01/30 03:04:52;;;;;;;17.20;7.80;;;;;-1.70;97082.80;;;;111058;1247;41532;-60
2022/01/30 03:07:22;;;;;;;18.00;8.80;;;;;-1.62;97082.80;;;;111121;1247;41134;-63
2022/01/30 03:09:58;;;;;;;16.70;7.30;;;;;-1.60;97079.00;;;;111143;1248;41150;-65
2022/01/30 03:12:27;;;;;;;15.00;6.70;;;;;-1.60;97079.00;;;;111061;1248;41601;-63
2022/01/30 03:14:57;;;;;;;15.30;7.50;;;;;-1.60;97072.60;;;;111185;1247;42577;-66
2022/01/30 03:17:27;;;;;;;18.30;8.10;;;;;-1.56;97064.40;;;;111053;1247;41606;-62
2022/01/30 03:19:57;;;;;;;14.70;6.50;;;;;-1.50;97063.20;;;;111035;1248;41880;-64
2022/01/30 03:22:28;;;;;;;14.90;6.70;;;;;-1.50;97058.60;;;;111193;1247;42275;-62
2022/01/30 03:24:58;;;;;;;13.90;6.20;;;;;-1.50;97044.60;;;;111116;1247;41245;-64
2022/01/30 03:27:53;;;;;;;15.50;5.90;;;;;-1.40;97045.80;;;;111264;1247;42394;-67
2022/01/30 03:30:32;;;;;;;14.80;6.40;;;;;-1.40;97033.80;;;;111131;1247;41717;-61
2022/01/30 03:33:26;;;;;;;18.80;6.50;;;;;-1.40;97029.60;;;;111207;1247;42121;-60
2022/01/30 03:35:57;;;;;;;15.50;6.70;;;;;-1.38;97034.20;;;;111134;1248;41600;-62
2022/01/30 03:38:27;;;;;;;;;;;;;-1.30;97027.20;;;;111152;1247;41145;-65
2022/01/30 03:40:59;;;;;;;15.00;6.20;;;;;-1.30;97034.20;;;;111054;1247;41395;-62
2022/01/30 03:43:29;;;;;;;16.30;6.10;;;;;-1.30;97028.40;;;;111114;1248;40914;-65
2022/01/30 03:45:59;;;;;;;14.90;5.80;;;;;-1.30;97027.20;;;;111134;1247;41931;-63
2022/01/30 03:48:30;;;;;;;13.40;5.80;;;;;-1.20;97021.00;;;;111147;1247;42269;-64
2022/01/30 03:51:08;;;;;;;11.50;5.10;;;;;-1.20;97015.00;;;;111112;1247;42272;-64
2022/01/30 03:53:39;;;;;;;13.40;5.10;;;;;-1.10;97002.00;;;;111082;1248;41270;-66
2022/01/30 03:56:09;;;;;;;13.70;5.30;;;;;-1.10;96996.40;;;;111143;1247;41167;-64
2022/01/30 03:58:39;;;;;;;13.10;5.00;;;;;-1.10;96986.60;;;;111112;1247;41283;-65
2022/01/30 04:01:12;;;;;;;12.00;5.30;;;;;-1.10;96985.60;;;;110984;1248;41707;-64
2022/01/30 04:03:43;;;;;;;13.70;6.30;;;;;-1.08;96973.80;;;;111062;1249;41254;-66
2022/01/30 04:06:13;;;;;;;11.90;5.40;;;;;-1.02;96977.00;;;;111025;1247;41139;-61
2022/01/30 04:08:44;;;;;;;13.70;5.90;;;;;-1.00;96975.20;;;;111112;1247;41115;-62
2022/01/30 04:11:33;;;;;;;13.50;5.80;;;;;-1.00;96961.20;;;;111141;1247;41253;-64
2022/01/30 04:14:17;;;;;;;13.50;5.80;;;;;-1.00;96947.00;;;;111092;1247;41141;-65
2022/01/30 04:17:10;;;;;;;12.90;5.30;;;;;-1.00;96942.80;;;;111157;1247;41148;-65
2022/01/30 04:19:52;;;;;;;13.30;6.10;;;;;-1.00;96933.80;;;;111209;1247;41244;-65
2022/01/30 04:22:34;;;;;;;15.10;5.50;;;;;-1.00;96932.40;;;;111135;1247;42124;-65
2022/01/30 04:25:16;;;;;;;12.90;5.40;;;;;-1.00;96932.60;;;;111215;1246;41268;-66
2022/01/30 04:28:02;;;;;;;12.70;5.20;;;;;-1.00;96939.60;;;;111128;1247;41251;-64
2022/01/30 04:30:53;;;;;;;12.90;5.70;;;;;-1.00;96937.00;;;;110976;1247;41261;-66
2022/01/30 04:33:33;;;;;;;13.90;6.10;;;;;-1.00;96916.20;;;;111131;1247;41716;-67
2022/01/30 04:36:41;;;;;;;12.40;5.80;;;;;-1.00;96912.80;;;;110908;1248;41628;-63
2022/01/30 04:40:06;;;;;;;12.00;5.80;;;;;-1.00;96903.40;;;;111045;1247;42124;-66
2022/01/30 04:58:48;;;;;;;14.10;5.70;;;;;-0.90;96874.60;;;;111020;1249;41167;-60
2022/01/30 05:01:57;;;;;;;12.90;5.70;;;;;-0.82;96876.60;;;;111194;1247;41242;-62
2022/01/30 05:04:55;;;;;;;15.50;6.10;;;;;-0.80;96870.20;;;;111251;1247;41186;-65
2022/01/30 05:07:28;;;;;;;15.10;6.90;;;;;-0.80;96862.20;;;;111058;1248;41614;-66
2022/01/30 05:10:16;;;;;;;14.70;6.20;;;;;-0.70;96862.00;;;;111191;1247;41986;-65
2022/01/30 05:13:17;;;;;;;16.50;6.70;;;;;-0.70;96864.40;;;;110946;1249;41261;-65
2022/01/30 05:16:05;;;;;;;14.00;6.40;;;;;-0.60;96855.20;;;;111151;1246;41283;-63
2022/01/30 05:18:56;;;;;;;17.20;6.70;;;;;-0.60;96852.60;;;;111080;1247;41980;-66
2022/01/30 05:22:06;;;;;;;14.20;6.30;;;;;-0.60;96856.40;;;;110915;1251;41271;-66
2022/01/30 05:25:08;;;;;;;15.10;6.80;;;;;-0.58;96849.60;;;;110516;1251;41266;-63
2022/01/30 05:27:48;;;;;;;14.30;6.30;;;;;-0.50;96850.00;;;;111112;1247;41698;-66
2022/01/30 05:30:43;;;;;;;13.40;6.20;;;;;-0.50;96846.60;;;;111051;1247;41436;-66
2022/01/30 05:33:19;;;;;;;13.40;5.70;;;;;-0.50;96850.80;;;;111103;1247;41362;-66
2022/01/30 05:36:21;;;;;;;15.60;6.00;;;;;-0.42;96842.80;;;;110928;1248;41337;-61
2022/01/30 05:39:00;;;;;;;12.90;6.10;;;;;-0.40;96840.80;;;;111084;1248;41143;-65
2022/01/30 05:41:57;;;;;;;14.00;6.10;;;;;-0.40;96839.60;;;;111135;1247;41695;-64
2022/01/30 05:48:05;;;;;;;12.00;5.10;;;;;-0.30;96826.80;;;;110682;1251;41299;-62
2022/01/30 05:50:53;;;;;;;12.20;5.20;;;;;-0.30;96812.20;;;;110665;1251;41901;-62
2022/01/30 05:53:38;;;;;;;12.70;5.30;;;;;-0.28;96813.00;;;;111008;1247;41151;-65
2022/01/30 05:56:15;;;;;;;12.40;5.90;;;;;-0.22;96818.40;;;;111142;1247;41240;-63
2022/01/30 05:58:45;;;;;;;14.00;5.90;;;;;-0.20;96812.80;;;;111118;1247;41158;-64
2022/01/30 06:01:30;;;;;;;14.40;6.00;;;;;-0.20;96804.40;;;;111237;1246;41477;-66
2022/01/30 06:04:13;;;;;;;12.30;5.20;;;;;-0.18;96812.80;;;;111025;1247;41269;-64
2022/01/30 06:06:49;;;;;;;11.70;5.60;;;;;-0.12;96804.80;;;;111232;1247;41163;-63
2022/01/30 06:09:19;;;;;;;12.20;5.70;;;;;-0.10;96794.60;;;;111101;1247;41154;-64
2022/01/30 06:11:53;;;;;;;12.20;5.90;;;;;-0.10;96806.00;;;;111159;1247;41261;-62
2022/01/30 06:14:27;;;;;;;11.70;5.50;;;;;-0.10;96795.60;;;;111107;1246;41700;-65
2022/01/30 06:17:11;;;;;;;12.70;6.00;;;;;-0.10;96792.60;;;;111082;1247;41907;-64
2022/01/30 06:20:09;;;;;;;14.30;6.50;;;;;-0.10;96793.00;;;;111010;1247;41270;-64
2022/01/30 06:22:59;;;;;;;16.70;7.30;;;;;-0.04;96791.00;;;;111183;1247;41247;-60
2022/01/30 06:26:08;;;;;;;18.70;7.90;;;;;0.00;96799.20;;;;111017;1248;41254;-64
2022/01/30 06:28:56;;;;;;;20.30;10.80;;;;;0.00;96794.40;;;;111027;1248;41154;-65
2022/01/30 06:31:44;;;;;;;28.60;13.70;;;;;-0.06;96792.60;;;;111124;1247;41143;-65
2022/01/30 06:34:33;;;;;;;33.70;15.10;;;;;-0.10;96785.80;;;;111202;1246;41246;-65
2022/01/30 06:37:38;;;;;;;38.20;16.00;;;;;-0.10;96784.00;;;;111063;1246;41834;-65
2022/01/30 06:40:40;;;;;;;41.90;18.40;;;;;-0.20;96782.60;;;;110890;1246;41915;-66
2022/01/30 06:43:32;;;;;;;45.40;21.10;;;;;-0.18;96769.60;;;;111202;1247;41365;-67
2022/01/30 06:46:33;;;;;;;45.10;20.20;;;;;-0.20;96782.00;;;;110814;1247;41461;-64
2022/01/30 06:49:21;;;;;;;38.90;18.50;;;;;-0.18;96768.80;;;;111300;1247;41629;-66
2022/01/30 06:52:09;;;;;;;39.10;18.90;;;;;-0.20;96771.20;;;;111158;1247;41719;-67
2022/01/30 06:55:17;;;;;;;35.30;15.70;;;;;-0.20;96775.80;;;;110799;1251;41269;-64
2022/01/30 06:58:04;;;;;;;28.70;15.30;;;;;-0.20;96755.60;;;;110665;1251;41266;-64
2022/01/30 07:00:51;;;;;;;30.00;14.00;;;;;-0.20;96759.80;;;;110941;1247;41194;-64
2022/01/30 07:03:46;;;;;;;30.10;13.50;;;;;-0.10;96765.20;;;;110897;1247;41253;-61
2022/01/30 07:06:31;;;;;;;48.30;19.70;;;;;-0.10;96749.00;;;;111075;1246;41259;-62
2022/01/30 07:09:00;;;;;;;34.60;14.40;;;;;-0.10;96755.60;;;;111087;1247;41299;-66
2022/01/30 07:11:30;;;;;;;28.20;12.90;;;;;-0.06;96745.40;;;;111069;1247;41515;-65
2022/01/30 07:13:59;;;;;;;28.20;12.50;;;;;0.00;96747.60;;;;111300;1246;41215;-66
2022/01/30 07:16:28;;;;;;;31.00;14.00;;;;;0.00;96746.80;;;;111325;1246;41128;-63
2022/01/30 07:18:58;;;;;;;27.90;12.70;;;;;0.10;96738.40;;;;111240;1247;42470;-61
2022/01/30 07:21:28;;;;;;;29.60;14.70;;;;;0.10;96737.20;;;;111089;1247;41876;-62
2022/01/30 07:23:57;;;;;;;32.30;14.50;;;;;0.10;96739.60;;;;111417;1246;41628;-65
2022/01/30 07:26:26;;;;;;;26.70;12.90;;;;;0.20;96712.40;;;;111445;1246;41731;-62
2022/01/30 07:28:55;;;;;;;28.00;13.50;;;;;0.20;96724.00;;;;111090;1247;41529;-64
2022/01/30 07:31:24;;;;;;;26.90;13.60;;;;;0.20;96726.00;;;;111219;1246;41603;-62
2022/01/30 07:33:54;;;;;;;26.40;12.90;;;;;0.22;96724.40;;;;111189;1247;41552;-63
2022/01/30 07:36:31;;;;;;;28.70;12.90;;;;;0.30;96713.20;;;;111397;1246;41133;-67
2022/01/30 07:39:00;;;;;;;;;;;;;0.30;96708.20;;;;111118;1247;41154;-66
2022/01/30 07:41:29;;;;;;;31.90;14.80;;;;;0.32;96712.00;;;;111066;1247;40909;-67
2022/01/30 07:44:00;;;;;;;33.90;15.70;;;;;0.40;96712.80;;;;111349;1246;41260;-67
2022/01/30 07:46:29;;;;;;;29.80;14.00;;;;;0.40;96703.60;;;;111082;1247;41731;-67
2022/01/30 07:48:59;;;;;;;36.90;14.90;;;;;0.50;96707.20;;;;111116;1247;41296;-67
2022/01/30 07:51:27;;;;;;;30.60;16.10;;;;;0.50;96701.80;;;;111195;1247;41927;-64
2022/01/30 07:53:56;;;;;;;30.90;14.90;;;;;0.48;96717.80;;;;111080;1247;41149;-65
2022/01/30 07:56:25;;;;;;;24.90;13.20;;;;;0.50;96708.60;;;;111059;1247;41968;-65
2022/01/30 07:58:54;;;;;;;20.20;8.00;;;;;0.60;96702.20;;;;111228;1247;41146;-66
2022/01/30 08:01:23;;;;;;;18.40;7.90;;;;;0.50;96709.40;;;;111112;1247;41299;-65
2022/01/30 08:03:53;;;;;;;15.20;7.10;;;;;0.50;96713.80;;;;110949;1247;41285;-66
2022/01/30 08:06:22;;;;;;;15.70;6.70;;;;;0.60;96723.00;;;;111130;1248;41635;-61
2022/01/30 08:08:51;;;;;;;14.10;6.30;;;;;0.60;96710.00;;;;111173;1246;42197;-64
2022/01/30 08:11:20;;;;;;;13.00;6.10;;;;;0.70;96710.60;;;;111054;1247;41265;-65
2022/01/30 08:13:49;;;;;;;14.10;6.90;;;;;0.70;96704.40;;;;111056;1248;42014;-67
2022/01/30 08:16:20;;;;;;;13.00;5.90;;;;;0.80;96708.80;;;;111098;1246;41149;-66
2022/01/30 08:18:49;;;;;;;13.00;6.30;;;;;0.80;96708.40;;;;111116;1247;42527;-66
2022/01/30 08:21:18;;;;;;;12.40;6.60;;;;;0.90;96705.00;;;;111137;1248;41413;-67
2022/01/30 08:23:48;;;;;;;14.80;7.40;;;;;1.00;96708.00;;;;111106;1248;41217;-66
2022/01/30 08:26:17;;;;;;;15.90;6.80;;;;;1.06;96700.80;;;;111078;1246;41399;-66
2022/01/30 08:28:46;;;;;;;16.20;7.10;;;;;1.10;96692.40;;;;111333;1246;41146;-66
2022/01/30 08:31:15;;;;;;;16.30;7.00;;;;;1.16;96684.60;;;;111105;1248;41166;-65
2022/01/30 08:33:44;;;;;;;21.00;8.80;;;;;1.20;96687.40;;;;111166;1247;42394;-67
2022/01/30 08:36:12;;;;;;;25.90;11.10;;;;;1.12;96683.80;;;;111136;1248;41609;-66
2022/01/30 08:38:43;;;;;;;21.20;8.90;;;;;1.10;96683.60;;;;111216;1246;41151;-66
2022/01/30 08:41:13;;;;;;;20.30;9.30;;;;;1.14;96674.20;;;;111298;1246;40961;-66
2022/01/30 08:43:42;;;;;;;24.00;11.70;;;;;1.18;96666.80;;;;110988;1246;41148;-65
2022/01/30 08:46:13;;;;;;;36.90;15.50;;;;;1.20;96659.20;;;;111168;1247;41202;-63
2022/01/30 08:48:43;;;;;;;26.60;13.60;;;;;1.12;96658.40;;;;111245;1247;41150;-66
2022/01/30 08:51:13;;;;;;;22.20;11.40;;;;;1.08;96655.00;;;;111238;1245;41262;-67
2022/01/30 08:53:42;;;;;;;19.30;8.60;;;;;1.10;96651.00;;;;111435;1247;41347;-67
2022/01/30 08:56:11;;;;;;;19.40;8.90;;;;;1.20;96651.00;;;;111161;1247;41254;-69
2022/01/30 08:58:40;;;;;;;13.80;6.70;;;;;1.30;96642.20;;;;111077;1247;41516;-67
2022/01/30 09:01:12;;;;;;;15.10;8.00;;;;;1.40;96632.40;;;;111319;1246;42333;-65
2022/01/30 09:03:43;;;;;;;18.10;9.10;;;;;1.42;96631.80;;;;110811;1248;366797;-65
2022/01/30 09:06:12;;;;;;;21.40;9.30;;;;;1.44;96631.00;;;;111444;1247;41339;-66
2022/01/30 09:08:41;;;;;;;19.00;8.40;;;;;1.50;96628.60;;;;111465;1247;41126;-65
2022/01/30 09:11:10;;;;;;;13.60;6.70;;;;;1.50;96629.40;;;;111445;1246;41574;-65
2022/01/30 09:13:39;;;;;;;15.70;6.80;;;;;1.66;96628.00;;;;111430;1247;41120;-63
2022/01/30 09:16:08;;;;;;;11.80;5.40;;;;;1.80;96629.20;;;;111457;1246;41160;-66
2022/01/30 09:18:38;;;;;;;14.60;6.10;;;;;1.80;96620.80;;;;111424;1245;41606;-65
2022/01/30 09:21:08;;;;;;;15.00;7.10;;;;;1.80;96613.40;;;;111340;1246;41983;-63
2022/01/30 09:23:37;;;;;;;15.20;6.40;;;;;1.84;96617.20;;;;111303;1246;41265;-64
2022/01/30 09:26:06;;;;;;;15.10;6.20;;;;;1.90;96604.40;;;;111341;1246;42178;-61
2022/01/30 09:28:35;;;;;;;12.90;5.80;;;;;1.90;96594.20;;;;111345;1245;41161;-60
2022/01/30 09:31:04;;;;;;;14.00;6.10;;;;;1.90;96594.00;;;;111273;1247;41633;-61
2022/01/30 09:33:34;;;;;;;14.30;6.40;;;;;1.98;96582.60;;;;111271;1246;41134;-60
2022/01/30 09:36:03;;;;;;;11.60;5.70;;;;;1.92;96577.00;;;;111473;1247;41825;-62
2022/01/30 09:38:32;;;;;;;11.80;5.90;;;;;2.00;96601.40;;;;111414;1247;41252;-64
2022/01/30 09:41:03;;;;;;;;;;;;;2.00;96586.40;;;;111468;1246;42439;-61
2022/01/30 09:43:33;;;;;;;12.60;5.60;;;;;1.90;96592.20;;;;111433;1246;42682;-61
2022/01/30 09:46:03;;;;;;;11.80;5.30;;;;;2.00;96594.00;;;;111451;1247;41717;-63
2022/01/30 09:48:35;;;;;;;11.10;5.30;;;;;2.10;96600.20;;;;111427;1247;41199;-60
2022/01/30 09:51:07;;;;;;;13.20;5.90;;;;;2.20;96593.60;;;;111135;1247;41450;-62
2022/01/30 09:53:38;;;;;;;10.90;4.80;;;;;2.28;96580.40;;;;111263;1247;41138;-62
2022/01/30 09:56:07;;;;;;;15.00;5.90;;;;;2.34;96586.80;;;;111109;1247;41132;-63
2022/01/30 09:58:52;;;;;;;12.10;6.00;;;;;2.40;96585.80;;;;111067;1245;41724;-63
2022/01/30 10:01:21;;;;;;;11.60;5.60;;;;;2.50;96573.80;;;;111264;1245;42057;-60
2022/01/30 10:03:50;;;;;;;13.10;6.40;;;;;2.60;96557.80;;;;111126;1247;42371;-61
2022/01/30 10:06:22;;;;;;;16.80;7.60;;;;;2.64;96552.80;;;;111100;1247;41585;-61
2022/01/30 10:08:56;;;;;;;15.50;7.40;;;;;2.70;96548.20;;;;111170;1247;41161;-62
2022/01/30 10:11:59;;;;;;;14.70;6.90;;;;;2.80;96545.00;;;;111066;1248;41193;-64
2022/01/30 10:14:28;;;;;;;12.70;5.70;;;;;2.82;96541.00;;;;111151;1247;41591;-62
2022/01/30 10:17:47;;;;;;;18.50;8.50;;;;;3.00;96548.20;;;;110790;1250;41849;-64
2022/01/30 10:20:37;;;;;;;14.00;6.70;;;;;3.10;96550.80;;;;111203;1247;41634;-66
2022/01/30 10:23:10;;;;;;;14.70;6.70;;;;;3.18;96541.80;;;;111466;1245;41828;-66
2022/01/30 10:25:50;;;;;;;16.90;7.60;;;;;3.20;96533.40;;;;111111;1247;41259;-65
2022/01/30 10:28:19;;;;;;;15.50;7.20;;;;;3.20;96530.60;;;;111118;1247;41395;-66
2022/01/30 10:30:54;;;;;;;15.00;7.40;;;;;3.20;96522.00;;;;111348;1247;41924;-62
2022/01/30 10:33:41;;;;;;;19.20;8.70;;;;;3.30;96534.60;;;;111288;1246;41124;-64
2022/01/30 10:36:11;;;;;;;16.80;7.50;;;;;3.40;96529.00;;;;111388;1247;41627;-62
2022/01/30 10:38:46;;;;;;;;;;;;;3.36;96529.20;;;;111258;1246;41135;-60
2022/01/30 10:41:19;;;;;;;15.70;7.00;;;;;3.30;96527.40;;;;111169;1246;41392;-62
2022/01/30 10:43:53;;;;;;;13.30;6.40;;;;;3.10;96529.60;;;;111314;1247;41203;-64
2022/01/30 10:46:29;;;;;;;12.70;6.40;;;;;2.68;96533.00;;;;111235;1246;41263;-66
2022/01/30 10:49:00;;;;;;;13.50;6.50;;;;;2.70;96534.00;;;;111110;1245;41180;-62
2022/01/30 10:51:30;;;;;;;;;;;;;2.70;96517.80;;;;111284;1247;41310;-63
2022/01/30 10:54:06;;;;;;;14.60;6.80;;;;;2.66;96509.40;;;;111204;1245;41145;-63
2022/01/30 10:56:36;;;;;;;15.60;6.00;;;;;2.48;96501.40;;;;111143;1245;41636;-65
2022/01/30 10:59:14;;;;;;;11.40;6.20;;;;;2.60;96497.60;;;;111146;1246;42170;-58
2022/01/30 11:01:45;;;;;;;15.00;6.30;;;;;2.48;96492.80;;;;111199;1246;41487;-62
2022/01/30 11:04:28;;;;;;;14.70;6.60;;;;;2.60;96480.40;;;;111382;1246;41542;-62
2022/01/30 11:07:04;;;;;;;12.90;6.10;;;;;2.62;96470.40;;;;111216;1245;41480;-64
2022/01/30 11:12:11;;;;;;;13.10;6.00;;;;;2.90;96446.00;;;;111172;1246;41839;-61
2022/01/30 11:17:21;;;;;;;16.20;7.80;;;;;3.38;96429.40;;;;111071;1247;41153;-63
2022/01/30 11:19:53;;;;;;;16.10;7.80;;;;;3.68;96430.00;;;;111122;1247;41606;-61
2022/01/30 11:22:24;;;;;;;14.90;7.00;;;;;3.90;96425.20;;;;111136;1247;41168;-60
2022/01/30 11:24:55;;;;;;;18.70;9.10;;;;;4.28;96409.80;;;;111021;1248;42436;-59
2022/01/30 11:27:23;;;;;;;18.00;8.90;;;;;4.60;96412.40;;;;111231;1245;41482;-62
2022/01/30 11:29:52;;;;;;;17.30;9.40;;;;;5.38;96416.40;;;;111012;1247;41399;-63
2022/01/30 11:32:23;;;;;;;15.90;6.70;;;;;5.90;96412.00;;;;111135;1247;41590;-64
2022/01/30 11:34:55;;;;;;;13.70;6.50;;;;;6.02;96401.00;;;;111044;1247;41162;-61
2022/01/30 11:37:31;;;;;;;15.10;6.90;;;;;6.08;96390.20;;;;111109;1246;41239;-63
2022/01/30 11:40:05;;;;;;;15.10;7.30;;;;;6.00;96385.60;;;;110966;1249;41910;-66
2022/01/30 11:42:40;;;;;;;14.90;7.60;;;;;5.64;96392.20;;;;110986;1247;41785;-63
2022/01/30 11:45:08;;;;;;;13.80;7.00;;;;;5.78;96390.60;;;;111268;1245;41295;-60
2022/01/30 11:48:19;;;;;;;20.70;8.00;;;;;6.22;96375.40;;;;111153;1247;41812;-62
2022/01/30 11:51:02;;;;;;;14.70;7.40;;;;;5.70;96380.20;;;;111184;1246;41144;-62
2022/01/30 11:53:31;;;;;;;17.40;8.30;;;;;5.62;96374.60;;;;111098;1247;41721;-62
2022/01/30 11:56:02;;;;;;;16.30;7.70;;;;;5.10;96382.00;;;;111167;1247;41171;-62
2022/01/30 11:58:34;;;;;;;22.40;9.80;;;;;4.90;96375.40;;;;111196;1245;41258;-62
2022/01/30 12:01:37;;;;;;;22.00;10.20;;;;;4.74;96375.00;;;;111038;1246;41149;-62
2022/01/30 12:04:09;;;;;;;19.00;8.70;;;;;4.50;96368.80;;;;111152;1246;41591;-62
2022/01/30 12:06:41;;;;;;;20.10;9.10;;;;;4.46;96375.40;;;;111180;1246;41588;-64
2022/01/30 12:09:16;;;;;;;18.30;8.40;;;;;4.38;96369.40;;;;111058;1247;41146;-65
2022/01/30 12:11:55;;;;;;;18.50;8.90;;;;;4.50;96364.80;;;;111014;1246;41132;-65
2022/01/30 12:14:24;;;;;;;16.20;8.50;;;;;4.40;96362.60;;;;111264;1246;41127;-63
2022/01/30 12:16:57;;;;;;;16.60;7.40;;;;;4.50;96363.40;;;;111175;1246;41175;-63
2022/01/30 12:22:16;;;;;;;19.10;8.60;;;;;4.64;96359.00;;;;110989;1247;41778;-62
2022/01/30 12:24:48;;;;;;;16.80;8.30;;;;;4.48;96360.40;;;;111166;1246;41169;-66
2022/01/30 12:27:20;;;;;;;17.20;8.80;;;;;4.52;96358.40;;;;111204;1247;41168;-60
2022/01/30 12:29:52;;;;;;;17.30;8.80;;;;;4.60;96351.60;;;;111177;1247;41143;-64
2022/01/30 12:32:22;;;;;;;17.00;9.20;;;;;4.70;96353.80;;;;111136;1246;41276;-64
2022/01/30 12:34:54;;;;;;;15.20;8.10;;;;;4.70;96350.00;;;;111121;1247;41217;-65
2022/01/30 12:37:28;;;;;;;17.70;8.80;;;;;4.80;96340.60;;;;111081;1247;41185;-66
2022/01/30 12:39:59;;;;;;;18.90;8.80;;;;;4.86;96349.60;;;;111161;1246;41187;-66
2022/01/30 12:42:30;;;;;;;;;;;;;4.92;96334.40;;;;111055;1247;41961;-63
2022/01/30 12:45:04;;;;;;;15.10;6.90;;;;;5.70;96346.00;;;;111133;1246;42736;-63
2022/01/30 12:47:47;;;;;;;12.80;6.40;;;;;5.60;96345.00;;;;110930;1249;41379;-66
2022/01/30 12:50:19;;;;;;;12.90;6.30;;;;;5.40;96351.60;;;;111089;1247;41253;-63
2022/01/30 12:52:51;;;;;;;14.10;6.20;;;;;5.92;96339.80;;;;111047;1247;40847;-60
2022/01/30 12:55:21;;;;;;;12.40;5.70;;;;;6.60;96337.00;;;;111048;1247;41181;-63
2022/01/30 12:57:54;;;;;;;10.50;5.00;;;;;6.52;96333.60;;;;111034;1247;41464;-65
2022/01/30 13:00:23;;;;;;;12.10;5.20;;;;;8.22;96296.60;;;;111072;1247;41644;-60
2022/01/30 13:03:00;;;;;;;10.50;4.20;;;;;10.50;96282.00;;;;111018;1246;41139;-60
2022/01/30 13:05:31;;;;;;;10.40;3.40;;;;;12.50;96272.20;;;;111072;1247;41294;-60
2022/01/30 13:08:00;;;;;;;6.40;2.50;;;;;11.18;96304.40;;;;111121;1248;41263;-62
2022/01/30 13:10:30;;;;;;;6.10;2.40;;;;;8.94;96316.60;;;;111064;1248;41138;-60
2022/01/30 13:13:00;;;;;;;6.90;2.30;;;;;9.20;96317.20;;;;111098;1247;41146;-62
2022/01/30 13:15:32;;;;;;;4.40;2.00;;;;;8.42;96321.80;;;;111140;1246;41141;-61
2022/01/30 13:18:01;;;;;;;6.80;2.50;;;;;7.94;96323.80;;;;111091;1246;41611;-66
2022/01/30 13:20:30;;;;;;;5.90;2.20;;;;;7.44;96333.40;;;;111069;1247;41905;-63
2022/01/30 13:22:59;;;;;;;4.90;2.00;;;;;6.80;96326.60;;;;111045;1248;41142;-61
2022/01/30 13:25:28;;;;;;;7.80;2.10;;;;;6.54;96318.20;;;;111010;1247;41143;-62
2022/01/30 13:28:00;;;;;;;6.70;2.10;;;;;6.64;96318.80;;;;111008;1246;41133;-64
2022/01/30 13:30:30;;;;;;;5.90;2.30;;;;;6.46;96320.80;;;;111103;1247;41161;-66
2022/01/30 13:33:01;;;;;;;6.50;1.90;;;;;6.28;96320.40;;;;111131;1246;42016;-61
2022/01/30 13:35:30;;;;;;;5.20;2.30;;;;;6.10;96326.00;;;;111073;1246;41136;-62